Eglin Air Force Base, FL

2:03 PM CDT on August 27, 2016 (GMT -0500)
Sandy Ridge | | Change Station

Elev 157 ft 30.71 °N, 86.58 °W | Updated 25 seconds ago

Mostly Cloudy
Mostly Cloudy
90.3 °F
Feels Like 98 °F
N
0.0
Wind Variable Wind from NNE
Gusts 1.0 mph

Today
High -- | Low -- °F
--% Chance of Precip.
Yesterday
High -- | Low -- °F
Precip. -- in
Pressure 30.01 in
Visibility 10.0 miles
Clouds Few 4400 ft
Mostly Cloudy 9000 ft
Heat Index 98 °F
Dew Point 72 °F
Humidity 55%
Rainfall 0.00 in
Snow Depth Not available.
6:19 AM 7:14 PM
Waning Crescent, 22% visible
METAR KCEW 271853Z AUTO 10005KT 10SM FEW044 BKN090 33/21 A3002 RMK AO2 SLP162 T03280206
Pressure 30.01 in
Visibility 10.0 miles
Clouds Few 4400 ft
Mostly Cloudy 9000 ft
Heat Index 98 °F
Dew Point 72 °F
Humidity 55%
Rainfall 0.00 in
Snow Depth Not available.
6:19 AM 7:14 PM
Waning Crescent, 22% visible
METAR KCEW 271853Z AUTO 10005KT 10SM FEW044 BKN090 33/21 A3002 RMK AO2 SLP162 T03280206

10-Day Weather Forecast

Almanac

Astronomy

Aug. 27, 2016 Rise Set
Actual Time
Civil Twilight
Nautical Twilight
Astronomical Twilight
Moon
Length of Visible Light
Length of Day
Tomorrow will be .
, % of the Moon is Illuminated

Today's Extremes

State Highs State Lows

Community

WunderPhotos

Upload Photos

1,935,399 photos uploaded!

WunderBlog® & News

Nearby

Air Quality

  Air Quality AQ Index Pollutant
Not available.

Snow Depth

Station Depth Elevation

Earthquake Activity

City Distance Mag. Time & Date
Minimum magnitude displayed is 2.5.

Coastal Water Temperatures

Place Temperature

Stations

Nearby Weather Stations

Station Location Temp. Windchill Dew Point Humidity Wind Precip. Elev Updated Type
                   

Watches & Warnings

There are currently no watches in effect.